sensor_id;sensor_type;location;lat;lon;timestamp;pressure;altitude;pressure_sealevel;temperature
29701;BMP280;57917;51.380;-0.176;2024-02-28T00:03:27;101669.59;;;9.25
29701;BMP280;57917;51.380;-0.176;2024-02-28T00:09:14;101673.47;;;8.89
29701;BMP280;57917;51.380;-0.176;2024-02-28T00:15:01;101672.88;;;8.87
29701;BMP280;57917;51.380;-0.176;2024-02-28T00:20:48;101686.69;;;8.77
29701;BMP280;57917;51.380;-0.176;2024-02-28T00:26:34;101694.66;;;8.94
29701;BMP280;57917;51.380;-0.176;2024-02-28T00:32:21;101696.50;;;8.94
29701;BMP280;57917;51.380;-0.176;2024-02-28T00:38:11;101706.91;;;9.28
29701;BMP280;57917;51.380;-0.176;2024-02-28T00:43:58;101695.53;;;9.28
29701;BMP280;57917;51.380;-0.176;2024-02-28T00:49:45;101703.44;;;9.11
29701;BMP280;57917;51.380;-0.176;2024-02-28T00:55:31;101694.47;;;9.12
29701;BMP280;57917;51.380;-0.176;2024-02-28T01:01:18;101679.06;;;9.21
29701;BMP280;57917;51.380;-0.176;2024-02-28T01:07:05;101673.81;;;9.09
29701;BMP280;57917;51.380;-0.176;2024-02-28T01:12:52;101673.66;;;9.16
29701;BMP280;57917;51.380;-0.176;2024-02-28T01:18:39;101669.63;;;9.13
29701;BMP280;57917;51.380;-0.176;2024-02-28T01:24:31;101672.84;;;9.15
29701;BMP280;57917;51.380;-0.176;2024-02-28T01:30:20;101666.25;;;9.29
29701;BMP280;57917;51.380;-0.176;2024-02-28T01:36:07;101670.78;;;9.17
29701;BMP280;57917;51.380;-0.176;2024-02-28T01:41:54;101672.28;;;9.13
29701;BMP280;57917;51.380;-0.176;2024-02-28T01:47:42;101672.22;;;9.08
29701;BMP280;57917;51.380;-0.176;2024-02-28T01:53:29;101663.09;;;9.16
29701;BMP280;57917;51.380;-0.176;2024-02-28T01:59:17;101665.72;;;9.16
29701;BMP280;57917;51.380;-0.176;2024-02-28T02:05:05;101677.81;;;9.12
29701;BMP280;57917;51.380;-0.176;2024-02-28T02:10:51;101680.66;;;8.94
29701;BMP280;57917;51.380;-0.176;2024-02-28T02:16:38;101678.75;;;8.89
29701;BMP280;57917;51.380;-0.176;2024-02-28T02:28:17;101673.47;;;8.89
29701;BMP280;57917;51.380;-0.176;2024-02-28T02:34:04;101654.84;;;8.84
29701;BMP280;57917;51.380;-0.176;2024-02-28T02:39:51;101651.50;;;8.72
29701;BMP280;57917;51.380;-0.176;2024-02-28T02:45:39;101644.81;;;8.53
29701;BMP280;57917;51.380;-0.176;2024-02-28T02:51:26;101651.19;;;8.57
29701;BMP280;57917;51.380;-0.176;2024-02-28T02:57:13;101644.03;;;8.41
29701;BMP280;57917;51.380;-0.176;2024-02-28T03:03:00;101662.59;;;8.34
29701;BMP280;57917;51.380;-0.176;2024-02-28T03:08:47;101656.22;;;8.30
29701;BMP280;57917;51.380;-0.176;2024-02-28T03:14:35;101651.19;;;8.29
29701;BMP280;57917;51.380;-0.176;2024-02-28T03:20:21;101648.09;;;8.20
29701;BMP280;57917;51.380;-0.176;2024-02-28T03:26:08;101666.16;;;7.77
29701;BMP280;57917;51.380;-0.176;2024-02-28T03:31:55;101673.00;;;7.78
29701;BMP280;57917;51.380;-0.176;2024-02-28T03:37:42;101660.94;;;7.82
29701;BMP280;57917;51.380;-0.176;2024-02-28T03:43:29;101667.19;;;7.88
29701;BMP280;57917;51.380;-0.176;2024-02-28T03:49:16;101669.34;;;7.91
29701;BMP280;57917;51.380;-0.176;2024-02-28T03:55:03;101666.94;;;8.12
29701;BMP280;57917;51.380;-0.176;2024-02-28T04:00:50;101672.19;;;8.24
29701;BMP280;57917;51.380;-0.176;2024-02-28T04:06:43;101680.28;;;8.34
29701;BMP280;57917;51.380;-0.176;2024-02-28T04:12:30;101679.53;;;8.33
29701;BMP280;57917;51.380;-0.176;2024-02-28T04:18:17;101672.97;;;8.24
29701;BMP280;57917;51.380;-0.176;2024-02-28T04:24:08;101674.56;;;8.37
29701;BMP280;57917;51.380;-0.176;2024-02-28T04:29:56;101671.91;;;8.25
29701;BMP280;57917;51.380;-0.176;2024-02-28T04:35:42;101668.25;;;8.26
29701;BMP280;57917;51.380;-0.176;2024-02-28T04:41:29;101660.34;;;8.26
29701;BMP280;57917;51.380;-0.176;2024-02-28T04:47:16;101671.34;;;8.35
29701;BMP280;57917;51.380;-0.176;2024-02-28T04:53:07;101646.66;;;8.41
29701;BMP280;57917;51.380;-0.176;2024-02-28T04:58:53;101654.91;;;8.44
29701;BMP280;57917;51.380;-0.176;2024-02-28T05:04:40;101636.53;;;8.49
29701;BMP280;57917;51.380;-0.176;2024-02-28T05:10:30;101647.34;;;8.48
29701;BMP280;57917;51.380;-0.176;2024-02-28T05:16:17;101645.03;;;8.51
29701;BMP280;57917;51.380;-0.176;2024-02-28T05:22:05;101646.63;;;8.52
29701;BMP280;57917;51.380;-0.176;2024-02-28T05:27:51;101643.84;;;8.59
29701;BMP280;57917;51.380;-0.176;2024-02-28T05:33:40;101644.59;;;8.71
29701;BMP280;57917;51.380;-0.176;2024-02-28T05:39:27;101632.16;;;8.83
29701;BMP280;57917;51.380;-0.176;2024-02-28T05:45:18;101631.66;;;8.86
29701;BMP280;57917;51.380;-0.176;2024-02-28T05:51:05;101621.28;;;8.96
29701;BMP280;57917;51.380;-0.176;2024-02-28T05:56:52;101607.03;;;8.97
29701;BMP280;57917;51.380;-0.176;2024-02-28T06:02:39;101617.41;;;8.70
29701;BMP280;57917;51.380;-0.176;2024-02-28T06:08:26;101626.31;;;8.81
29701;BMP280;57917;51.380;-0.176;2024-02-28T06:14:14;101637.63;;;8.93
29701;BMP280;57917;51.380;-0.176;2024-02-28T06:20:00;101620.53;;;8.84
29701;BMP280;57917;51.380;-0.176;2024-02-28T06:25:51;101606.47;;;8.95
29701;BMP280;57917;51.380;-0.176;2024-02-28T06:31:38;101603.34;;;8.98
29701;BMP280;57917;51.380;-0.176;2024-02-28T06:37:25;101608.06;;;8.96
29701;BMP280;57917;51.380;-0.176;2024-02-28T06:43:11;101594.97;;;9.01
29701;BMP280;57917;51.380;-0.176;2024-02-28T06:48:59;101585.06;;;9.08
29701;BMP280;57917;51.380;-0.176;2024-02-28T06:54:46;101584.88;;;8.82
29701;BMP280;57917;51.380;-0.176;2024-02-28T07:00:33;101593.09;;;8.85
29701;BMP280;57917;51.380;-0.176;2024-02-28T07:06:20;101596.63;;;8.91
29701;BMP280;57917;51.380;-0.176;2024-02-28T07:12:07;101591.75;;;8.99
29701;BMP280;57917;51.380;-0.176;2024-02-28T07:17:56;101604.84;;;8.94
29701;BMP280;57917;51.380;-0.176;2024-02-28T07:23:44;101624.09;;;9.06
29701;BMP280;57917;51.380;-0.176;2024-02-28T07:29:30;101602.25;;;9.11
29701;BMP280;57917;51.380;-0.176;2024-02-28T07:35:17;101622.47;;;9.22
29701;BMP280;57917;51.380;-0.176;2024-02-28T07:41:05;101625.28;;;9.32
29701;BMP280;57917;51.380;-0.176;2024-02-28T07:46:53;101618.28;;;9.37
29701;BMP280;57917;51.380;-0.176;2024-02-28T07:52:41;101629.25;;;9.29
29701;BMP280;57917;51.380;-0.176;2024-02-28T07:58:29;101620.81;;;9.32
29701;BMP280;57917;51.380;-0.176;2024-02-28T08:04:16;101625.63;;;9.35
29701;BMP280;57917;51.380;-0.176;2024-02-28T08:10:03;101639.69;;;9.57
29701;BMP280;57917;51.380;-0.176;2024-02-28T08:15:53;101625.19;;;9.60
29701;BMP280;57917;51.380;-0.176;2024-02-28T08:21:41;101630.38;;;9.71
29701;BMP280;57917;51.380;-0.176;2024-02-28T08:27:31;101629.63;;;9.76
29701;BMP280;57917;51.380;-0.176;2024-02-28T08:33:18;101628.28;;;9.73
29701;BMP280;57917;51.380;-0.176;2024-02-28T08:39:10;101623.81;;;9.74
29701;BMP280;57917;51.380;-0.176;2024-02-28T08:44:58;101619.09;;;9.98
29701;BMP280;57917;51.380;-0.176;2024-02-28T08:50:46;101629.84;;;10.13
29701;BMP280;57917;51.380;-0.176;2024-02-28T08:56:33;101640.97;;;10.15
29701;BMP280;57917;51.380;-0.176;2024-02-28T09:02:23;101638.28;;;10.10
29701;BMP280;57917;51.380;-0.176;2024-02-28T09:08:35;101630.00;;;10.28
29701;BMP280;57917;51.380;-0.176;2024-02-28T09:14:30;101629.44;;;10.47
29701;BMP280;57917;51.380;-0.176;2024-02-28T09:20:17;101620.34;;;10.65
29701;BMP280;57917;51.380;-0.176;2024-02-28T09:26:04;101621.22;;;10.75
29701;BMP280;57917;51.380;-0.176;2024-02-28T09:31:51;101619.91;;;10.73
29701;BMP280;57917;51.380;-0.176;2024-02-28T09:37:38;101612.94;;;10.67
29701;BMP280;57917;51.380;-0.176;2024-02-28T09:43:29;101609.34;;;10.78
29701;BMP280;57917;51.380;-0.176;2024-02-28T09:49:20;101606.69;;;10.73
29701;BMP280;57917;51.380;-0.176;2024-02-28T09:55:07;101624.94;;;10.74
29701;BMP280;57917;51.380;-0.176;2024-02-28T10:01:01;101619.63;;;10.74
29701;BMP280;57917;51.380;-0.176;2024-02-28T10:06:50;101599.31;;;10.80
29701;BMP280;57917;51.380;-0.176;2024-02-28T10:12:43;101592.91;;;10.76
29701;BMP280;57917;51.380;-0.176;2024-02-28T10:18:36;101577.44;;;10.94
29701;BMP280;57917;51.380;-0.176;2024-02-28T10:24:24;101574.22;;;10.87
29701;BMP280;57917;51.380;-0.176;2024-02-28T10:30:11;101578.28;;;11.05
29701;BMP280;57917;51.380;-0.176;2024-02-28T10:35:59;101576.84;;;11.29
29701;BMP280;57917;51.380;-0.176;2024-02-28T10:41:46;101568.88;;;11.24
29701;BMP280;57917;51.380;-0.176;2024-02-28T10:47:33;101555.72;;;11.44
29701;BMP280;57917;51.380;-0.176;2024-02-28T10:53:22;101558.91;;;11.41
29701;BMP280;57917;51.380;-0.176;2024-02-28T10:59:11;101559.97;;;11.45
29701;BMP280;57917;51.380;-0.176;2024-02-28T11:05:00;101570.59;;;11.50
29701;BMP280;57917;51.380;-0.176;2024-02-28T11:10:57;101566.66;;;11.58
29701;BMP280;57917;51.380;-0.176;2024-02-28T11:16:44;101556.41;;;11.81
29701;BMP280;57917;51.380;-0.176;2024-02-28T11:22:33;101531.50;;;11.92
29701;BMP280;57917;51.380;-0.176;2024-02-28T11:28:21;101517.72;;;11.90
29701;BMP280;57917;51.380;-0.176;2024-02-28T11:34:11;101514.84;;;12.12
29701;BMP280;57917;51.380;-0.176;2024-02-28T11:40:02;101510.59;;;12.26
29701;BMP280;57917;51.380;-0.176;2024-02-28T11:45:55;101493.03;;;12.80
29701;BMP280;57917;51.380;-0.176;2024-02-28T11:51:44;101480.97;;;12.98
29701;BMP280;57917;51.380;-0.176;2024-02-28T11:57:37;101481.75;;;13.18
29701;BMP280;57917;51.380;-0.176;2024-02-28T12:03:34;101459.16;;;13.11
29701;BMP280;57917;51.380;-0.176;2024-02-28T12:09:22;101470.34;;;13.03
29701;BMP280;57917;51.380;-0.176;2024-02-28T12:15:17;101465.56;;;13.00
29701;BMP280;57917;51.380;-0.176;2024-02-28T12:21:08;101453.25;;;13.24
29701;BMP280;57917;51.380;-0.176;2024-02-28T12:26:55;101441.53;;;13.30
29701;BMP280;57917;51.380;-0.176;2024-02-28T12:32:44;101424.47;;;13.36
29701;BMP280;57917;51.380;-0.176;2024-02-28T12:38:31;101427.69;;;13.66
29701;BMP280;57917;51.380;-0.176;2024-02-28T12:44:18;101403.25;;;13.31
29701;BMP280;57917;51.380;-0.176;2024-02-28T12:50:06;101391.06;;;13.20
29701;BMP280;57917;51.380;-0.176;2024-02-28T12:56:01;101382.59;;;13.13
29701;BMP280;57917;51.380;-0.176;2024-02-28T13:01:48;101357.16;;;12.97
29701;BMP280;57917;51.380;-0.176;2024-02-28T13:07:36;101358.69;;;13.03
29701;BMP280;57917;51.380;-0.176;2024-02-28T13:13:23;101368.28;;;13.04
29701;BMP280;57917;51.380;-0.176;2024-02-28T13:19:11;101347.63;;;12.86
29701;BMP280;57917;51.380;-0.176;2024-02-28T13:24:58;101334.09;;;12.82
29701;BMP280;57917;51.380;-0.176;2024-02-28T13:30:46;101325.19;;;13.12
29701;BMP280;57917;51.380;-0.176;2024-02-28T13:36:35;101322.56;;;13.40
29701;BMP280;57917;51.380;-0.176;2024-02-28T13:42:32;101306.28;;;13.18
29701;BMP280;57917;51.380;-0.176;2024-02-28T13:48:23;101304.94;;;13.16
29701;BMP280;57917;51.380;-0.176;2024-02-28T13:54:20;101299.72;;;12.96
29701;BMP280;57917;51.380;-0.176;2024-02-28T14:00:13;101292.63;;;12.91
29701;BMP280;57917;51.380;-0.176;2024-02-28T14:06:00;101283.31;;;12.89
29701;BMP280;57917;51.380;-0.176;2024-02-28T14:11:53;101265.81;;;12.82
29701;BMP280;57917;51.380;-0.176;2024-02-28T14:17:58;101265.81;;;12.82
29701;BMP280;57917;51.380;-0.176;2024-02-28T14:23:45;101259.94;;;12.86
29701;BMP280;57917;51.380;-0.176;2024-02-28T14:29:33;101250.66;;;12.88
29701;BMP280;57917;51.380;-0.176;2024-02-28T14:36:00;101240.91;;;12.73
29701;BMP280;57917;51.380;-0.176;2024-02-28T14:41:47;101240.78;;;12.89
29701;BMP280;57917;51.380;-0.176;2024-02-28T14:47:34;101246.56;;;13.01
29701;BMP280;57917;51.380;-0.176;2024-02-28T14:53:23;101241.88;;;12.88
29701;BMP280;57917;51.380;-0.176;2024-02-28T14:59:12;101248.78;;;12.83
29701;BMP280;57917;51.380;-0.176;2024-02-28T15:05:05;101245.59;;;12.38
29701;BMP280;57917;51.380;-0.176;2024-02-28T15:10:53;101256.25;;;12.33
29701;BMP280;57917;51.380;-0.176;2024-02-28T15:16:43;101248.09;;;12.09
29701;BMP280;57917;51.380;-0.176;2024-02-28T15:22:51;101245.09;;;12.31
29701;BMP280;57917;51.380;-0.176;2024-02-28T15:28:38;101243.88;;;11.98
29701;BMP280;57917;51.380;-0.176;2024-02-28T15:34:25;101247.63;;;11.87
29701;BMP280;57917;51.380;-0.176;2024-02-28T15:40:22;101251.34;;;11.76
29701;BMP280;57917;51.380;-0.176;2024-02-28T15:46:09;101249.50;;;11.72
29701;BMP280;57917;51.380;-0.176;2024-02-28T15:52:00;101245.28;;;11.56
29701;BMP280;57917;51.380;-0.176;2024-02-28T15:57:49;101233.31;;;11.78
29701;BMP280;57917;51.380;-0.176;2024-02-28T16:03:39;101214.22;;;11.76
29701;BMP280;57917;51.380;-0.176;2024-02-28T16:09:31;101214.22;;;11.66
29701;BMP280;57917;51.380;-0.176;2024-02-28T16:15:19;101220.59;;;11.70
29701;BMP280;57917;51.380;-0.176;2024-02-28T16:21:06;101205.47;;;11.61
29701;BMP280;57917;51.380;-0.176;2024-02-28T16:26:53;101198.59;;;11.50
29701;BMP280;57917;51.380;-0.176;2024-02-28T16:32:40;101188.78;;;11.50
29701;BMP280;57917;51.380;-0.176;2024-02-28T16:38:28;101190.41;;;11.41
29701;BMP280;57917;51.380;-0.176;2024-02-28T16:44:15;101179.81;;;11.31
29701;BMP280;57917;51.380;-0.176;2024-02-28T16:50:03;101172.09;;;11.45
29701;BMP280;57917;51.380;-0.176;2024-02-28T16:55:50;101151.16;;;11.43
29701;BMP280;57917;51.380;-0.176;2024-02-28T17:01:42;101167.56;;;11.50
29701;BMP280;57917;51.380;-0.176;2024-02-28T17:07:34;101148.50;;;11.58
29701;BMP280;57917;51.380;-0.176;2024-02-28T17:13:21;101166.50;;;11.56
29701;BMP280;57917;51.380;-0.176;2024-02-28T17:19:08;101169.72;;;11.48
29701;BMP280;57917;51.380;-0.176;2024-02-28T17:24:57;101159.66;;;11.45
29701;BMP280;57917;51.380;-0.176;2024-02-28T17:30:44;101161.75;;;11.53
29701;BMP280;57917;51.380;-0.176;2024-02-28T17:36:32;101149.09;;;11.35
29701;BMP280;57917;51.380;-0.176;2024-02-28T17:42:19;101137.69;;;11.35
29701;BMP280;57917;51.380;-0.176;2024-02-28T17:48:08;101137.41;;;11.41
29701;BMP280;57917;51.380;-0.176;2024-02-28T17:53:57;101119.13;;;11.35
29701;BMP280;57917;51.380;-0.176;2024-02-28T17:59:46;101121.25;;;11.32
29701;BMP280;57917;51.380;-0.176;2024-02-28T18:05:38;101116.97;;;11.42
29701;BMP280;57917;51.380;-0.176;2024-02-28T18:11:26;101113.00;;;11.39
29701;BMP280;57917;51.380;-0.176;2024-02-28T18:17:14;101109.31;;;11.35
29701;BMP280;57917;51.380;-0.176;2024-02-28T18:23:01;101114.31;;;11.47
29701;BMP280;57917;51.380;-0.176;2024-02-28T18:28:52;101108.47;;;11.45
29701;BMP280;57917;51.380;-0.176;2024-02-28T18:34:39;101098.91;;;11.54
29701;BMP280;57917;51.380;-0.176;2024-02-28T18:40:27;101073.69;;;11.61
29701;BMP280;57917;51.380;-0.176;2024-02-28T18:46:22;101069.72;;;11.59
29701;BMP280;57917;51.380;-0.176;2024-02-28T18:52:11;101046.38;;;11.61
29701;BMP280;57917;51.380;-0.176;2024-02-28T18:58:01;101056.22;;;11.50
29701;BMP280;57917;51.380;-0.176;2024-02-28T19:03:48;101046.38;;;11.61
29701;BMP280;57917;51.380;-0.176;2024-02-28T19:09:37;101051.19;;;11.54
29701;BMP280;57917;51.380;-0.176;2024-02-28T19:15:25;101067.31;;;11.67
29701;BMP280;57917;51.380;-0.176;2024-02-28T19:21:12;101050.06;;;11.65
29701;BMP280;57917;51.380;-0.176;2024-02-28T19:26:59;101043.72;;;11.66
29701;BMP280;57917;51.380;-0.176;2024-02-28T19:32:49;101033.41;;;11.64
29701;BMP280;57917;51.380;-0.176;2024-02-28T19:38:44;101026.25;;;11.60
29701;BMP280;57917;51.380;-0.176;2024-02-28T19:44:59;101033.09;;;11.66
29701;BMP280;57917;51.380;-0.176;2024-02-28T19:50:46;101029.06;;;11.73
29701;BMP280;57917;51.380;-0.176;2024-02-28T19:56:33;101029.38;;;11.72
29701;BMP280;57917;51.380;-0.176;2024-02-28T20:02:23;101010.50;;;11.78
29701;BMP280;57917;51.380;-0.176;2024-02-28T20:08:12;100996.16;;;11.84
29701;BMP280;57917;51.380;-0.176;2024-02-28T20:13:59;100995.53;;;11.97
29701;BMP280;57917;51.380;-0.176;2024-02-28T20:19:46;100977.81;;;11.88
29701;BMP280;57917;51.380;-0.176;2024-02-28T20:25:37;100960.13;;;11.73
29701;BMP280;57917;51.380;-0.176;2024-02-28T20:31:24;100970.72;;;11.73
29701;BMP280;57917;51.380;-0.176;2024-02-28T20:37:17;100972.34;;;11.74
29701;BMP280;57917;51.380;-0.176;2024-02-28T20:43:15;100957.78;;;11.72
29701;BMP280;57917;51.380;-0.176;2024-02-28T20:49:03;100956.69;;;11.73
29701;BMP280;57917;51.380;-0.176;2024-02-28T20:54:52;100963.59;;;11.79
29701;BMP280;57917;51.380;-0.176;2024-02-28T21:00:43;100950.03;;;11.75
29701;BMP280;57917;51.380;-0.176;2024-02-28T21:06:30;100957.94;;;11.85
29701;BMP280;57917;51.380;-0.176;2024-02-28T21:12:17;100936.75;;;11.80
29701;BMP280;57917;51.380;-0.176;2024-02-28T21:18:11;100918.00;;;11.72
29701;BMP280;57917;51.380;-0.176;2024-02-28T21:23:58;100910.56;;;11.69
29701;BMP280;57917;51.380;-0.176;2024-02-28T21:29:45;100905.81;;;11.66
29701;BMP280;57917;51.380;-0.176;2024-02-28T21:35:32;100880.16;;;11.56
29701;BMP280;57917;51.380;-0.176;2024-02-28T21:41:19;100888.03;;;11.71
29701;BMP280;57917;51.380;-0.176;2024-02-28T21:47:07;100873.41;;;11.74
29701;BMP280;57917;51.380;-0.176;2024-02-28T21:53:00;100859.94;;;11.70
29701;BMP280;57917;51.380;-0.176;2024-02-28T21:58:48;100856.75;;;11.68
29701;BMP280;57917;51.380;-0.176;2024-02-28T22:04:38;100867.38;;;11.68
29701;BMP280;57917;51.380;-0.176;2024-02-28T22:10:24;100851.97;;;11.70
29701;BMP280;57917;51.380;-0.176;2024-02-28T22:16:12;100834.44;;;11.74
29701;BMP280;57917;51.380;-0.176;2024-02-28T22:21:59;100823.00;;;11.74
29701;BMP280;57917;51.380;-0.176;2024-02-28T22:27:47;100822.81;;;11.70
29701;BMP280;57917;51.380;-0.176;2024-02-28T22:33:34;100827.06;;;11.66
29701;BMP280;57917;51.380;-0.176;2024-02-28T22:39:21;100817.50;;;11.70
29701;BMP280;57917;51.380;-0.176;2024-02-28T22:45:12;100787.28;;;11.66
29701;BMP280;57917;51.380;-0.176;2024-02-28T22:51:00;100777.97;;;11.69
29701;BMP280;57917;51.380;-0.176;2024-02-28T22:56:48;100767.38;;;11.69
29701;BMP280;57917;51.380;-0.176;2024-02-28T23:02:35;100754.63;;;11.71
29701;BMP280;57917;51.380;-0.176;2024-02-28T23:08:24;100754.97;;;11.64
29701;BMP280;57917;51.380;-0.176;2024-02-28T23:14:11;100762.31;;;11.72
29701;BMP280;57917;51.380;-0.176;2024-02-28T23:20:01;100744.50;;;11.78
29701;BMP280;57917;51.380;-0.176;2024-02-28T23:25:52;100728.91;;;11.71
29701;BMP280;57917;51.380;-0.176;2024-02-28T23:31:47;100744.59;;;11.68
29701;BMP280;57917;51.380;-0.176;2024-02-28T23:37:37;100754.59;;;11.76
29701;BMP280;57917;51.380;-0.176;2024-02-28T23:43:26;100737.34;;;11.73
29701;BMP280;57917;51.380;-0.176;2024-02-28T23:49:19;100741.03;;;11.77
29701;BMP280;57917;51.380;-0.176;2024-02-28T23:55:08;100734.34;;;11.85
